Terminal Aerodrome Forecast
Issued by NWS

Home | Current Version | Previous Version | Text Only | Print | Product List | Glossary On
Versions: 1 2 3 4 5 6 7 8 9 10 11 12 13 14 15 16
000
FTUS42 KGSP 292300
TAFGMU
TAF
KGMU 292339Z 3000/3024 02007KT P6SM BKN070
     FM300600 01008KT P6SM SCT060
     FM301600 05006KT P6SM FEW050
     FM301900 00000KT P6SM SCT060=

USA.gov is the U.S. government's official web portal to all federal, state and local government web resources and services.